Time;durP1;ratioP1;P1;durP2;ratioP2;P2;SDS_P1;SDS_P2;PMS_P1;PMS_P2;Temp;Humidity;BMP_temperature;BMP_pressure;BME280_temperature;BME280_humidity;BME280_pressure;Samples;Min_cycle;Max_cycle;Signal;HPM_P1;HPM_P2
2023/04/28 00:02:08;;;;;;;10.57;6.97;;;;;;;;;;5051917;28;20088;-70
2023/04/28 00:04:34;;;;;;;12.98;8.07;;;;;;;;;;5034302;28;20496;-68
2023/04/28 00:07:00;;;;;;;15.55;7.60;;;;;;;;;;5052398;28;20037;-70
2023/04/28 00:09:26;;;;;;;17.73;8.40;;;;;;;;;;5052389;28;20036;-70
2023/04/28 00:11:52;;;;;;;12.55;8.75;;;;;;;;;;5052473;28;20088;-69
2023/04/28 00:14:18;;;;;;;11.73;7.88;;;;;;;;;;5052114;28;20436;-69
2023/04/28 00:16:44;;;;;;;14.15;8.25;;;;;;;;;;5051626;28;20041;-70
2023/04/28 00:19:10;;;;;;;12.43;7.50;;;;;;;;;;5052025;28;20091;-70
2023/04/28 00:21:36;;;;;;;17.13;8.48;;;;;;;;;;5051713;28;20049;-70
2023/04/28 00:24:02;;;;;;;11.90;6.88;;;;;;;;;;5033842;28;20402;-70
2023/04/28 00:26:28;;;;;;;12.73;8.02;;;;;;;;;;5034475;28;20045;-69
2023/04/28 00:28:54;;;;;;;18.58;9.15;;;;;;;;;;5033934;28;20126;-70
2023/04/28 00:31:20;;;;;;;18.23;8.25;;;;;;;;;;5033482;28;20076;-69
2023/04/28 00:33:46;;;;;;;18.08;8.93;;;;;;;;;;5050251;28;20097;-69
2023/04/28 00:36:12;;;;;;;15.07;8.05;;;;;;;;;;5015581;28;20489;-69
2023/04/28 00:38:38;;;;;;;14.65;8.82;;;;;;;;;;5032156;28;20477;-70
2023/04/28 00:41:05;;;;;;;18.80;8.65;;;;;;;;;;5052758;28;20520;-68
2023/04/28 00:43:31;;;;;;;16.17;8.20;;;;;;;;;;5017614;28;20044;-70
2023/04/28 00:45:57;;;;;;;13.70;7.82;;;;;;;;;;5052082;28;20098;-68
2023/04/28 00:48:23;;;;;;;15.77;8.52;;;;;;;;;;5050207;28;20049;-69
2023/04/28 00:50:50;;;;;;;17.83;8.73;;;;;;;;;;5051543;28;20461;-70
2023/04/28 00:53:16;;;;;;;17.38;9.80;;;;;;;;;;5033164;28;20037;-69
2023/04/28 00:55:42;;;;;;;14.60;7.60;;;;;;;;;;5051491;28;20504;-70
2023/04/28 00:58:09;;;;;;;17.65;8.50;;;;;;;;;;5049567;28;20055;-70
2023/04/28 01:00:35;;;;;;;15.32;8.32;;;;;;;;;;5031186;28;20497;-70
2023/04/28 01:03:01;;;;;;;17.85;8.70;;;;;;;;;;5016592;28;20106;-69
2023/04/28 01:05:28;;;;;;;15.13;7.88;;;;;;;;;;5033296;28;20434;-70
2023/04/28 01:07:55;;;;;;;16.40;8.35;;;;;;;;;;5014889;28;20040;-69
2023/04/28 01:10:21;;;;;;;16.38;9.73;;;;;;;;;;5031871;28;20103;-69
2023/04/28 01:12:47;;;;;;;15.18;8.93;;;;;;;;;;5041429;28;20095;-70
2023/04/28 01:15:17;;;;;;;15.75;8.27;;;;;;;;;;5050679;28;20037;-69
2023/04/28 01:17:44;;;;;;;;;;;7.30;99.90;;;;;;5033353;28;20037;-69
2023/04/28 01:20:10;;;;;;;13.05;7.68;;;;;;;;;;5033032;28;19921;-69
2023/04/28 01:22:36;;;;;;;15.15;8.30;;;;;;;;;;5051401;28;20049;-70
2023/04/28 01:25:02;;;;;;;12.05;7.28;;;;;;;;;;5050218;28;20118;-69
2023/04/28 01:27:29;;;;;;;16.85;8.13;;;;;;;;;;5016176;28;20041;-69
2023/04/28 01:29:57;;;;;;;13.80;8.20;;;;;;;;;;5050198;28;20041;-69
2023/04/28 01:32:23;;;;;;;13.32;8.02;;;;;;;;;;5032455;28;20061;-69
2023/04/28 01:34:50;;;;;;;18.70;8.13;;;;;;;;;;5031747;28;20049;-69
2023/04/28 01:37:16;;;;;;;12.02;6.53;;;;;;;;;;5032229;28;20056;-68
2023/04/28 01:39:42;;;;;;;13.73;8.00;;;;;;;;;;5015504;28;20053;-70
2023/04/28 01:42:08;;;;;;;12.60;7.78;;;;;;;;;;5018085;28;20057;-70
2023/04/28 01:44:34;;;;;;;11.70;7.38;;;;;;;;;;5033285;28;20128;-70
2023/04/28 01:47:00;;;;;;;13.73;8.50;;;;;;;;;;5050848;28;20040;-70
2023/04/28 01:49:26;;;;;;;15.57;8.02;;;;;;;;;;5048596;28;20041;-70
2023/04/28 01:51:52;;;;;;;14.20;7.65;;;;;;;;;;5050454;28;20041;-69
2023/04/28 01:54:18;;;;;;;15.15;8.13;;;;;;;;;;5051212;28;20053;-69
2023/04/28 01:56:44;;;;;;;15.45;7.18;;;;;;;;;;5050668;28;20063;-68
2023/04/28 01:59:10;;;;;;;16.58;7.55;;;;;;;;;;5049462;28;20132;-70
2023/04/28 02:01:36;;;;;;;12.02;7.07;;;;;;;;;;5050135;28;20041;-69
2023/04/28 02:04:02;;;;;;;12.13;7.10;;;;;;;;;;5032956;28;20091;-70
2023/04/28 02:06:28;;;;;;;15.52;7.60;;;;;;;;;;5050161;28;20045;-69
2023/04/28 02:08:54;;;;;;;12.70;7.45;;;;;;;;;;5032913;28;20059;-69
2023/04/28 02:11:20;;;;;;;13.52;7.53;;;;;;;;;;5052082;28;20052;-69
2023/04/28 02:13:46;;;;;;;12.70;7.35;;;;;;;;;;5054776;28;20044;-70
2023/04/28 02:16:12;;;;;;;12.52;7.07;;;;;;;;;;5036722;28;20401;-69
2023/04/28 02:18:38;;;;;;;13.77;7.53;;;;;;;;;;5054412;28;20041;-70
2023/04/28 02:21:11;;;;;;;15.90;6.68;;;;;;;;;;5054604;28;20041;-68
2023/04/28 02:23:38;;;;;;;18.02;8.05;;;;;;;;;;5018845;28;20033;-69
2023/04/28 02:26:04;;;;;;;14.57;7.57;;;;;;;;;;5019074;28;20098;-69
2023/04/28 02:28:30;;;;;;;17.88;7.35;;;;;;;;;;5034959;28;20045;-67
2023/04/28 02:31:03;;;;;;;15.05;7.25;;;;;;;;;;5035311;28;20049;-68
2023/04/28 02:33:30;;;;;;;15.77;7.53;;;;;;;;;;5036712;28;20045;-69
2023/04/28 02:36:02;;;;;;;11.07;6.93;;;;;;;;;;5035408;28;20060;-70
2023/04/28 02:38:29;;;;;;;13.05;6.80;;;;;;;;;;5049620;28;20087;-70
2023/04/28 02:41:03;;;;;;;15.65;7.95;;;;;;;;;;5053591;28;20052;-69
2023/04/28 02:43:29;;;;;;;12.75;7.38;;;;;;;;;;5054285;28;20113;-68
2023/04/28 02:45:56;;;;;;;13.98;7.38;;;;;;;;;;5035132;28;20167;-70
2023/04/28 02:48:22;;;;;;;14.70;7.95;;;;;;;;;;5017155;28;20044;-69
2023/04/28 02:50:48;;;;;;;11.73;6.65;;;;;;;;;;5034935;28;20541;-70
2023/04/28 02:53:14;;;;;;;11.70;6.80;;;;;;;;;;5035649;28;20053;-69
2023/04/28 02:55:40;;;;;;;18.08;8.18;;;;;;;;;;5035535;28;20094;-69
2023/04/28 02:58:06;;;;;;;15.32;8.13;;;;;;;;;;5052303;28;20045;-70
2023/04/28 03:00:32;;;;;;;13.90;7.45;;;;;;;;;;5033042;28;20049;-68
2023/04/28 03:02:58;;;;;;;16.10;8.75;;;;;;;;;;5052804;28;20051;-67
2023/04/28 03:05:25;;;;;;;15.32;7.53;;;;;;;;;;5052728;28;20043;-70
2023/04/28 03:07:51;;;;;;;13.43;7.72;;;;;;;;;;5035095;28;20045;-69
2023/04/28 03:10:17;;;;;;;13.85;7.78;;;;;;;;;;5049252;28;20047;-69
2023/04/28 03:12:43;;;;;;;15.05;7.63;;;;;;;;;;5035967;28;20044;-69
2023/04/28 03:15:09;;;;;;;12.10;7.72;;;;;;;;;;5053874;28;20055;-69
2023/04/28 03:17:37;;;;;;;18.17;8.95;;;;;;;;;;5034074;28;20079;-70
2023/04/28 03:20:04;;;;;;;19.63;9.32;;;;;;;;;;5035861;28;20095;-70
2023/04/28 03:22:30;;;;;;;16.58;8.38;;;;;;;;;;5016277;28;20098;-69
2023/04/28 03:24:56;;;;;;;17.10;7.97;;;;;;;;;;5053778;28;20382;-70
2023/04/28 03:27:22;;;;;;;14.10;8.20;;;;;;;;;;5051993;28;20107;-69
2023/04/28 03:29:49;;;;;;;14.45;7.43;;;;;;;;;;5033609;28;20118;-69
2023/04/28 03:32:15;;;;;;;11.45;7.13;;;;;;;;;;5053072;28;20464;-69
2023/04/28 03:34:41;;;;;;;14.63;8.85;;;;;;;;;;5036001;28;20041;-70
2023/04/28 03:37:07;;;;;;;20.00;8.23;;;;;;;;;;5017401;28;20083;-70
2023/04/28 03:39:34;;;;;;;13.85;7.97;;;;;;;;;;5034344;28;20102;-70
2023/04/28 03:42:00;;;;;;;16.17;8.43;;;;;;;;;;5053382;28;20045;-69
2023/04/28 03:44:26;;;;;;;15.65;7.80;;;;;;;;;;5053134;28;20052;-69
2023/04/28 03:46:52;;;;;;;15.95;8.65;;;;;;;;;;5035323;28;20103;-70
2023/04/28 03:49:18;;;;;;;15.07;8.35;;;;;;;;;;5051844;28;20114;-70
2023/04/28 03:51:44;;;;;;;14.13;8.20;;;;;;;;;;5053345;28;20044;-70
2023/04/28 03:54:10;;;;;;;14.93;8.65;;;;;;;;;;5031973;28;20080;-69
2023/04/28 03:56:36;;;;;;;18.65;9.13;;;;;;;;;;5053322;28;20493;-68
2023/04/28 03:59:02;;;;;;;17.33;8.52;;;;;;;;;;5052399;28;20045;-70
2023/04/28 04:01:28;;;;;;;16.23;9.50;;;;;;;;;;5035352;28;20131;-70
2023/04/28 04:03:54;;;;;;;17.13;8.43;;;;;;;;;;5016437;28;20056;-70
2023/04/28 04:06:21;;;;;;;15.23;8.35;;;;;;;;;;5034248;28;20090;-70
2023/04/28 04:08:47;;;;;;;13.95;8.80;;;;;;;;;;5018863;28;20053;-68
2023/04/28 04:11:13;;;;;;;16.20;9.05;;;;;;;;;;5051526;28;20049;-69
2023/04/28 04:13:39;;;;;;;17.10;9.88;;;;;;;;;;5050961;28;20059;-70
2023/04/28 04:16:05;;;;;;;14.88;8.15;;;;;;;;;;5053143;28;20056;-70
2023/04/28 04:18:31;;;;;;;16.02;9.18;;;;;;;;;;5033659;28;20101;-70
2023/04/28 04:20:57;;;;;;;16.08;8.10;;;;;;;;;;5052988;28;20131;-69
2023/04/28 04:23:23;;;;;;;13.95;8.57;;;;;;;;;;5017047;28;20049;-69
2023/04/28 04:25:50;;;;;;;16.75;9.27;;;;;;;;;;5052512;28;20047;-70
2023/04/28 04:28:16;;;;;;;18.52;9.85;;;;;;;;;;5052079;28;20049;-70
2023/04/28 04:30:42;;;;;;;19.92;8.68;;;;;;;;;;5052560;28;20132;-68
2023/04/28 04:33:08;;;;;;;16.50;9.30;;;;;;;;;;5032901;28;20044;-69
2023/04/28 04:35:34;;;;;;;19.88;9.98;;;;;;;;;;5031292;28;20163;-69
2023/04/28 04:38:00;;;;;;;20.73;9.13;;;;;;;;;;5052368;28;20417;-69
2023/04/28 04:40:26;;;;;;;17.02;9.27;;;;;;;;;;5017392;28;20053;-69
2023/04/28 04:42:52;;;;;;;18.50;9.63;;;;;;;;;;5033152;28;20060;-69
2023/04/28 04:45:18;;;;;;;15.70;9.05;;;;;;;;;;5033286;28;20083;-69
2023/04/28 04:47:44;;;;;;;17.10;9.02;;;;;;;;;;5035945;28;20037;-69
2023/04/28 04:50:11;;;;;;;18.90;8.63;;;;;;;;;;5033985;28;20548;-69
2023/04/28 04:52:37;;;;;;;16.08;9.00;;;;;;;;;;5033112;28;20088;-68
2023/04/28 04:55:03;;;;;;;16.67;8.80;;;;;;;;;;5022168;28;20155;-69
2023/04/28 04:57:29;;;;;;;14.25;8.80;;;;;;;;;;5017452;28;20044;-69
2023/04/28 04:59:55;;;;;;;18.42;8.95;;;;;;;;;;5051543;28;20060;-69
2023/04/28 05:02:21;;;;;;;16.58;9.00;;;;;;;;;;5033762;28;20041;-69
2023/04/28 05:07:18;;;;;;;14.57;8.88;;;;;;;;;;5072921;22;20114;-69
2023/04/28 05:09:44;;;;;;;17.63;8.75;;;;;;;;;;5054457;28;20045;-68
2023/04/28 05:12:11;;;;;;;16.05;9.07;;;;;;;;;;5070432;28;20400;-68
2023/04/28 05:14:37;;;;;;;19.08;9.40;;;;;;;;;;5037363;28;20044;-68
2023/04/28 05:17:03;;;;;;;17.13;9.90;;;;;;;;;;5036060;28;20085;-68
2023/04/28 05:19:29;;;;;;;16.55;8.98;;;;;;;;;;5053788;28;20084;-68
2023/04/28 05:21:55;;;;;;;16.08;8.50;;;;;;;;;;5035829;28;20057;-68
2023/04/28 05:24:25;;;;;;;19.27;9.38;;;;;;;;;;5071034;28;20052;-69
2023/04/28 05:26:51;;;;;;;17.25;9.52;;;;;;;;;;5051574;28;20041;-69
2023/04/28 05:29:17;;;;;;;15.80;9.38;;;;;;;;;;5053389;28;20045;-68
2023/04/28 05:31:43;;;;;;;18.25;9.30;;;;;;;;;;5070407;28;20515;-68
2023/04/28 05:34:09;;;;;;;17.77;8.90;;;;;;;;;;5070519;28;20040;-68
2023/04/28 05:36:35;;;;;;;17.48;9.45;;;;;;;;;;5033799;28;20060;-68
2023/04/28 05:39:01;;;;;;;16.00;9.18;;;;;;;;;;5070215;28;20098;-68
2023/04/28 05:41:27;;;;;;;14.93;8.50;;;;;;;;;;5071481;28;20477;-68
2023/04/28 05:43:53;;;;;;;17.50;9.13;;;;;;;;;;5069497;28;20105;-68
2023/04/28 05:46:19;;;;;;;17.58;9.18;;;;;;;;;;5071295;28;20037;-68
2023/04/28 05:48:46;;;;;;;18.08;9.18;;;;;;;;;;5074536;28;20041;-70
2023/04/28 05:51:12;;;;;;;17.77;8.15;;;;;;;;;;5073414;28;20044;-67
2023/04/28 05:53:38;;;;;;;18.15;9.52;;;;;;;;;;5075971;28;20420;-69
2023/04/28 05:56:04;;;;;;;17.00;9.50;;;;;;;;;;5076057;28;20049;-69
2023/04/28 05:58:30;;;;;;;18.23;9.43;;;;;;;;;;5056487;28;20081;-69
2023/04/28 06:00:56;;;;;;;16.42;9.13;;;;;;;;;;5074439;28;20132;-68
2023/04/28 06:03:22;;;;;;;16.05;8.90;;;;;;;;;;5074956;28;20071;-68
2023/04/28 06:05:49;;;;;;;17.60;9.32;;;;;;;;;;5075438;28;20095;-69
2023/04/28 06:08:15;;;;;;;16.13;8.75;;;;;;;;;;5039651;28;20519;-69
2023/04/28 06:10:41;;;;;;;14.02;8.27;;;;;;;;;;5040734;28;20044;-69
2023/04/28 06:13:08;;;;;;;16.77;8.52;;;;;;;;;;5057838;28;20080;-67
2023/04/28 06:15:34;;;;;;;14.93;8.38;;;;;;;;;;5056569;28;20048;-69
2023/04/28 06:20:58;;;;;;;17.40;8.98;;;;;;;;;;5143335;22;20046;-69
2023/04/28 06:23:25;;;;;;;17.63;9.00;;;;;;;;;;5031164;28;20135;-69
2023/04/28 06:25:51;;;;;;;17.23;9.07;;;;;;;;;;5017943;28;20049;-69
2023/04/28 06:28:17;;;;;;;14.13;8.32;;;;;;;;;;5032084;28;20057;-68
2023/04/28 06:30:43;;;;;;;15.93;9.27;;;;;;;;;;5032176;28;20103;-69
2023/04/28 06:33:09;;;;;;;14.75;8.57;;;;;;;;;;5034692;28;20046;-69
2023/04/28 06:35:37;;;;;;;17.20;8.77;;;;;;;;;;5033829;28;20452;-68
2023/04/28 06:38:03;;;;;;;15.35;9.20;;;;;;;;;;5017178;28;20376;-69
2023/04/28 06:40:29;;;;;;;15.85;8.70;;;;;;;;;;5032910;28;20120;-69
2023/04/28 06:42:55;;;;;;;17.75;8.68;;;;;;;;;;5000518;28;20079;-68
2023/04/28 06:45:21;;;;;;;15.30;8.90;;;;;;;;;;5017219;28;20060;-69
2023/04/28 06:47:47;;;;;;;15.23;8.40;;;;;;;;;;4998670;28;20073;-69
2023/04/28 06:50:13;;;;;;;14.55;8.48;;;;;;;;;;5015311;28;20464;-69
2023/04/28 06:52:39;;;;;;;13.63;8.02;;;;;;;;;;5015206;28;20053;-68
2023/04/28 06:55:08;;;;;;;19.67;9.57;;;;;;;;;;5017064;28;20080;-68
2023/04/28 06:57:34;;;;;;;15.63;7.90;;;;;;;;;;5016818;28;20057;-69
2023/04/28 07:00:00;;;;;;;14.50;7.70;;;;;;;;;;5014697;28;20096;-68
2023/04/28 07:02:26;;;;;;;15.18;9.02;;;;;;;;;;5023533;28;20508;-68
2023/04/28 07:04:52;;;;;;;19.38;8.98;;;;;;;;;;5024579;28;20089;-68
2023/04/28 07:07:18;;;;;;;14.55;8.15;;;;;;;;;;5034098;28;20049;-68
2023/04/28 07:09:44;;;;;;;14.02;8.20;;;;;;;;;;5015740;28;20398;-68
2023/04/28 07:12:10;;;;;;;13.23;8.65;;;;;;;;;;5028332;28;20045;-68
2023/04/28 07:14:36;;;;;;;16.50;8.85;;;;;;;;;;5014732;28;20512;-69
2023/04/28 07:17:02;;;;;;;14.77;8.88;;;;;;;;;;5034564;28;20042;-68
2023/04/28 07:19:28;;;;;;;15.18;7.53;;;;;;;;;;5015731;28;20047;-68
2023/04/28 07:21:54;;;;;;;15.30;8.70;;;;;;;;;;4998848;28;20092;-69
2023/04/28 07:24:22;;;;;;;18.92;8.95;;;;;;;;;;5033187;28;20402;-68
2023/04/28 07:26:48;;;;;;;18.33;8.05;;;;;;;;;;5031415;28;20135;-68
2023/04/28 07:29:15;;;;;;;17.25;8.50;;;;;;;;;;5031057;28;20045;-68
2023/04/28 07:31:41;;;;;;;14.68;8.35;;;;;;;;;;5016032;28;20045;-68
2023/04/28 07:34:07;;;;;;;14.35;8.35;;;;;;;;;;5014638;28;20391;-68
2023/04/28 07:36:35;;;;;;;13.45;7.70;;;;;;;;;;5033022;28;20041;-68
2023/04/28 07:39:01;;;;;;;14.52;7.95;;;;;;;;;;5006031;28;20089;-69
2023/04/28 07:41:27;;;;;;;14.18;8.23;;;;;;;;;;5029753;28;20080;-69
2023/04/28 07:43:54;;;;;;;16.10;8.20;;;;;;;;;;5000110;28;20041;-68
2023/04/28 07:46:20;;;;;;;17.25;8.77;;;;;;;;;;5033124;28;20092;-70
2023/04/28 07:48:46;;;;;;;16.30;9.07;;;;;;;;;;5033763;28;20049;-69
2023/04/28 07:51:12;;;;;;;15.55;8.63;;;;;;;;;;5030893;28;20057;-69
2023/04/28 07:53:38;;;;;;;15.13;8.70;;;;;;;;;;5000166;28;20099;-69
2023/04/28 07:56:04;;;;;;;14.20;8.23;;;;;;;;;;5015345;28;20045;-69
2023/04/28 07:58:30;;;;;;;14.52;8.93;;;;;;;;;;5018129;28;20436;-69
2023/04/28 08:00:56;;;;;;;14.50;8.85;;;;;;;;;;4998968;28;20088;-68
2023/04/28 08:03:22;;;;;;;19.05;9.20;;;;;;;;;;5032651;28;20126;-69
2023/04/28 08:05:48;;;;;;;14.38;8.93;;;;;;;;;;5030628;28;20037;-72
2023/04/28 08:08:14;;;;;;;13.77;9.25;;;;;;;;;;5028141;28;20494;-70
2023/04/28 08:10:42;;;;;;;13.40;8.25;;;;;;;;;;5032960;28;20049;-70
2023/04/28 08:13:08;;;;;;;15.98;9.00;;;;;;;;;;5033399;28;20057;-70
2023/04/28 08:15:34;;;;;;;16.20;8.85;;;;;;;;;;5010654;28;20065;-70
2023/04/28 08:18:00;;;;;;;15.32;8.82;;;;;;;;;;4997985;28;20052;-69
2023/04/28 08:20:26;;;;;;;16.80;8.80;;;;;;;;;;5031890;28;20418;-69
2023/04/28 08:22:52;;;;;;;14.73;8.65;;;;;;;;;;5032225;28;20061;-70
2023/04/28 08:25:18;;;;;;;12.23;7.47;;;;;;;;;;5032893;28;20143;-70
2023/04/28 08:27:44;;;;;;;15.77;8.60;;;;;;;;;;5031396;28;20073;-70
2023/04/28 08:30:11;;;;;;;13.73;8.55;;;;;;;;;;5020095;28;20077;-70
2023/04/28 08:32:37;;;;;;;14.15;8.82;;;;;;;;;;5019518;28;20055;-69
2023/04/28 08:35:03;;;;;;;14.32;8.95;;;;;;;;;;5032194;28;20041;-70
2023/04/28 08:37:30;;;;;;;15.50;8.15;;;;;;;;;;4997517;28;20095;-67
2023/04/28 08:40:01;;;;;;;13.95;8.43;;;;;;;;;;5013285;28;20051;-69
2023/04/28 08:42:31;;;;;;;16.65;8.60;;;;;;;;;;5010501;28;20060;-69
2023/04/28 08:45:00;;;;;;;17.65;9.10;;;;;;;;;;5027116;28;20418;-69
2023/04/28 08:47:34;;;;;;;16.30;8.47;;;;;;;;;;5021393;28;20054;-69
2023/04/28 08:50:04;;;;;;;13.13;8.45;;;;;;;;;;5022632;28;20428;-69
2023/04/28 08:52:31;;;;;;;13.82;8.65;;;;;;;;;;4998092;28;20482;-69
2023/04/28 08:55:01;;;;;;;14.85;8.63;;;;;;;;;;4994689;28;20122;-69
2023/04/28 08:57:27;;;;;;;;;;;;;;;;;;5032720;28;20049;-69
2023/04/28 08:59:53;;;;;;;15.05;8.05;;;;;;;;;;5014167;28;20017;-70
2023/04/28 09:02:19;;;;;;;15.00;9.07;;;;;;;;;;5013624;28;20509;-70
2023/04/28 09:04:49;;;;;;;16.13;8.57;;;;;;;;;;5027182;28;20072;-67
2023/04/28 09:07:15;;;;;;;17.35;8.70;;;;;;;;;;5030767;28;20048;-69
2023/04/28 09:09:41;;;;;;;13.40;8.57;;;;;;;;;;5032376;28;20494;-70
2023/04/28 09:12:07;;;;;;;14.20;8.60;;;;;;;;;;5014409;28;20504;-69
2023/04/28 09:14:35;;;;;;;14.23;8.30;;;;;;;;;;5029196;28;20124;-68
2023/04/28 09:17:01;;;;;;;14.73;8.00;;;;;;;;;;4996145;28;20468;-69
2023/04/28 09:19:37;;;;;;;13.75;8.18;;;;;;;;;;5014031;28;20069;-68
2023/04/28 09:22:05;;;;;;;11.57;7.68;;;;;;;;;;5026353;28;20045;-68
2023/04/28 09:24:35;;;;;;;13.07;7.78;;;;;;;;;;5013138;28;20088;-71
2023/04/28 09:27:01;;;;;;;;;;;;;;;;;;5017656;28;20057;-69
2023/04/28 09:29:28;;;;;;;14.40;8.13;;;;;;;;;;5031507;28;20395;-69
2023/04/28 09:31:54;;;;;;;11.40;7.82;;;;;;;;;;5013979;28;20132;-70
2023/04/28 09:34:21;;;;;;;13.65;8.18;;;;;;;;;;5013917;28;20045;-70
2023/04/28 09:36:47;;;;;;;12.85;7.78;;;;;;;;;;5030147;28;20062;-70
2023/04/28 09:39:13;;;;;;;11.98;7.97;;;;;;;;;;5029976;28;20136;-71
2023/04/28 09:41:40;;;;;;;12.98;6.85;;;;;;;;;;5008312;28;20076;-68
2023/04/28 09:44:20;;;;;;;10.07;7.50;;;;;;;;;;5028357;28;20049;-69
2023/04/28 09:46:47;;;;;;;12.25;7.13;;;;;;;;;;4994360;28;20061;-71
2023/04/28 09:51:41;;;;;;;14.60;7.65;;;;;;;;;;5077274;22;20063;-69
2023/04/28 09:54:07;;;;;;;12.40;7.70;;;;;;;;;;5079701;22;20067;-71
2023/04/28 09:56:37;;;;;;;10.75;6.82;;;;;;;;;;5068003;28;20159;-71
2023/04/28 09:59:03;;;;;;;14.70;7.18;;;;;;;;;;5033914;28;20126;-70
2023/04/28 10:01:40;;;;;;;12.70;7.50;;;;;;;;;;5051373;28;20045;-70
2023/04/28 10:04:06;;;;;;;12.38;7.30;;;;;;;;;;5051734;28;20037;-69
2023/04/28 10:06:35;;;;;;;11.05;7.53;;;;;;;;;;5042744;28;20063;-70
2023/04/28 10:09:02;;;;;;;11.90;7.00;;;;;;;;;;5046962;22;20053;-70
2023/04/28 10:11:29;;;;;;;10.27;6.95;;;;;;;;;;5032712;28;20114;-70
2023/04/28 10:13:55;;;;;;;9.70;6.35;;;;;;;;;;5050911;28;20041;-70
2023/04/28 10:16:23;;;;;;;11.95;7.10;;;;;;;;;;5032278;28;20060;-70
2023/04/28 10:18:49;;;;;;;10.18;6.70;;;;;;;;;;5041001;28;20056;-70
2023/04/28 10:21:17;;;;;;;9.85;6.63;;;;;;;;;;5042071;28;20072;-71
2023/04/28 10:24:01;;;;;;;14.18;7.22;;;;;;;;;;5033896;28;20047;-71
2023/04/28 10:26:47;;;;;;;8.80;6.32;;;;;;;;;;5050648;28;20055;-69
2023/04/28 10:29:14;;;;;;;13.27;6.88;;;;;;;;;;5042151;28;20067;-68
2023/04/28 10:32:00;;;;;;;13.55;6.55;;;;;;;;;;5051118;28;20133;-67
2023/04/28 10:34:27;;;;;;;10.65;6.45;;;;;;;;;;5034220;28;20048;-67
2023/04/28 10:36:54;;;;;;;9.02;6.05;;;;;;;;;;5035794;28;20509;-67
2023/04/28 10:39:20;;;;;;;8.88;6.88;;;;;;;;;;5020340;28;20049;-67
2023/04/28 10:41:47;;;;;;;8.63;6.15;;;;;;;;;;5054106;28;20045;-66
2023/04/28 10:44:43;;;;;;;10.20;7.15;;;;;;;;;;5051622;28;20048;-66
2023/04/28 10:47:09;;;;;;;9.82;6.97;;;;;;;;;;5006159;28;20049;-67
2023/04/28 10:49:55;;;;;;;8.68;5.88;;;15.10;99.90;;;;;;5036545;28;20037;-67
2023/04/28 10:52:43;;;;;;;8.20;5.68;;;;;;;;;;5054392;28;20481;-67
2023/04/28 10:55:31;;;;;;;8.55;6.22;;;;;;;;;;5054027;28;20037;-67
2023/04/28 10:58:18;;;;;;;9.65;6.15;;;;;;;;;;5019440;28;20053;-68
2023/04/28 11:00:46;;;;;;;9.73;6.32;;;;;;;;;;5053698;28;20036;-66
2023/04/28 11:03:31;;;;;;;11.63;7.35;;;;;;;;;;5019037;28;20202;-66
2023/04/28 11:06:25;;;;;;;10.60;6.38;;;15.00;99.90;;;;;;5045537;28;20045;-67
2023/04/28 11:08:51;;;;;;;11.00;6.15;;;;;;;;;;5036588;28;20088;-67
2023/04/28 11:11:21;;;;;;;9.98;6.78;;;;;;;;;;5035071;28;20083;-66
2023/04/28 11:13:48;;;;;;;11.93;7.40;;;;;;;;;;5035443;28;20041;-68
2023/04/28 11:16:16;;;;;;;11.48;6.45;;;;;;;;;;5020067;28;20070;-68
2023/04/28 11:18:45;;;;;;;11.48;7.03;;;;;;;;;;5020207;28;20083;-67
2023/04/28 11:21:11;;;;;;;15.95;8.05;;;;;;;;;;5051022;28;20167;-65
2023/04/28 11:23:38;;;;;;;12.32;7.97;;;;;;;;;;5035897;28;20053;-66
2023/04/28 11:26:04;;;;;;;17.75;9.90;;;;;;;;;;5017570;28;20132;-68
2023/04/28 11:28:31;;;;;;;11.95;7.82;;;;;;;;;;5035828;28;20541;-68
2023/04/28 11:31:12;;;;;;;14.07;8.48;;;;;;;;;;5051049;28;20060;-67
2023/04/28 11:33:39;;;;;;;12.05;8.68;;;;;;;;;;5030168;28;20120;-68
2023/04/28 11:36:06;;;;;;;12.45;9.35;;;;;;;;;;5046019;28;20056;-68
2023/04/28 11:38:42;;;;;;;15.02;9.65;;;;;;;;;;5029115;28;20077;-68
2023/04/28 11:41:09;;;;;;;12.80;9.25;;;;;;;;;;5047112;28;20099;-68
2023/04/28 11:43:35;;;;;;;14.32;9.60;;;;;;;;;;5045615;28;20127;-68
2023/04/28 11:46:02;;;;;;;13.05;9.48;;;;;;;;;;5029522;28;20056;-69
2023/04/28 11:48:28;;;;;;;13.48;9.95;;;;;;;;;;5025071;28;20079;-69
2023/04/28 11:50:54;;;;;;;14.52;9.48;;;;;;;;;;5010156;28;20044;-69
2023/04/28 11:53:22;;;;;;;18.02;9.80;;;;;;;;;;5008017;28;20151;-69
2023/04/28 11:55:48;;;;;;;19.40;11.25;;;;;;;;;;5046861;28;20252;-71
2023/04/28 11:58:22;;;;;;;17.55;10.45;;;;;;;;;;5039670;28;20037;-72
2023/04/28 12:01:08;;;;;;;13.73;10.15;;;13.70;99.90;;;;;;5005569;28;20053;-71
2023/04/28 12:03:42;;;;;;;15.38;10.85;;;;;;;;;;5044984;28;20401;-71
2023/04/28 12:06:08;;;;;;;17.42;11.80;;;;;;;;;;5012236;28;20044;-70
2023/04/28 12:08:34;;;;;;;16.88;12.55;;;;;;;;;;5026819;28;20049;-70
2023/04/28 12:11:11;;;;;;;20.90;12.82;;;;;;;;;;5010947;28;20045;-70
2023/04/28 12:13:38;;;;;;;16.75;12.70;;;;;;;;;;5023736;28;20047;-70
2023/04/28 12:16:05;;;;;;;21.13;15.10;;;;;;;;;;5008996;28;20052;-70
2023/04/28 12:18:35;;;;;;;28.95;18.92;;;;;;;;;;5023953;28;20049;-69
2023/04/28 12:21:02;;;;;;;37.90;21.83;;;;;;;;;;5042277;28;20052;-69
2023/04/28 12:23:29;;;;;;;35.97;22.40;;;;;;;;;;5043161;28;20046;-70
2023/04/28 12:25:56;;;;;;;32.35;21.42;;;;;;;;;;5023941;28;20428;-71
2023/04/28 12:28:22;;;;;;;36.38;22.63;;;;;;;;;;5026832;28;20033;-70
2023/04/28 12:30:48;;;;;;;37.25;23.88;;;;;;;;;;5040476;28;20558;-70
2023/04/28 12:33:24;;;;;;;35.30;23.52;;;;;;;;;;5025335;28;20143;-70
2023/04/28 12:35:51;;;;;;;33.20;23.55;;;;;;;;;;5029913;28;20041;-69
2023/04/28 12:38:17;;;;;;;32.67;23.23;;;;;;;;;;5016952;28;20041;-68
2023/04/28 12:40:43;;;;;;;39.47;24.65;;;;;;;;;;5026263;28;20037;-69
2023/04/28 12:43:09;;;;;;;37.90;26.17;;;;;;;;;;5013565;28;20519;-69
2023/04/28 12:45:36;;;;;;;37.58;25.88;;;;;;;;;;5051702;28;20059;-69
2023/04/28 12:48:02;;;;;;;39.67;29.08;;;;;;;;;;5033216;28;20048;-71
2023/04/28 12:50:31;;;;;;;42.33;29.63;;;;;;;;;;5029104;28;20038;-72
2023/04/28 12:52:57;;;;;;;36.72;26.38;;;;;;;;;;5032580;28;20052;-71
2023/04/28 12:55:24;;;;;;;41.55;30.13;;;;;;;;;;5037590;28;20044;-70
2023/04/28 12:57:50;;;;;;;41.10;28.92;;;;;;;;;;5017950;28;20044;-70
2023/04/28 13:00:20;;;;;;;42.63;29.85;;;;;;;;;;5044813;28;20096;-69
2023/04/28 13:02:46;;;;;;;47.22;31.80;;;;;;;;;;5050637;28;20057;-68
2023/04/28 13:05:13;;;;;;;44.88;31.52;;;;;;;;;;5036781;28;20045;-68
2023/04/28 13:07:39;;;;;;;43.22;31.75;;;;;;;;;;5008254;28;20045;-69
2023/04/28 13:10:06;;;;;;;43.53;30.42;;;;;;;;;;5017149;28;20085;-68
2023/04/28 13:12:32;;;;;;;43.17;30.30;;;;;;;;;;5051159;28;20124;-68
2023/04/28 13:15:00;;;;;;;39.85;29.30;;;;;;;;;;5036512;28;20040;-67
2023/04/28 13:17:27;;;;;;;44.50;30.00;;;;;;;;;;5016803;28;20128;-68
2023/04/28 13:19:53;;;;;;;45.67;31.45;;;;;;;;;;5051809;28;20481;-68
2023/04/28 13:22:20;;;;;;;46.00;31.08;;;;;;;;;;5032847;28;20397;-67
2023/04/28 13:24:46;;;;;;;47.53;34.47;;;;;;;;;;5033938;28;20095;-68
2023/04/28 13:27:13;;;;;;;45.60;32.10;;;;;;;;;;5027619;28;20049;-67
2023/04/28 13:29:39;;;;;;;48.00;32.53;;;;;;;;;;5050665;28;20512;-67
2023/04/28 13:32:06;;;;;;;50.17;34.05;;;;;;;;;;5034026;28;20045;-67
2023/04/28 13:34:32;;;;;;;47.53;33.58;;;;;;;;;;5049843;28;20044;-67
2023/04/28 13:36:58;;;;;;;47.45;34.42;;;;;;;;;;5021727;28;20178;-67
2023/04/28 13:39:24;;;;;;;48.35;32.67;;;;;;;;;;5032529;28;20053;-67
2023/04/28 13:41:50;;;;;;;52.05;32.63;;;;;;;;;;5076351;22;20057;-67
2023/04/28 13:44:16;;;;;;;50.38;33.42;;;;;;;;;;5048021;28;20051;-67
2023/04/28 13:46:42;;;;;;;48.55;33.05;;;;;;;;;;5050026;28;20076;-68
2023/04/28 13:49:09;;;;;;;41.50;28.90;;;;;;;;;;5051369;28;20437;-67
2023/04/28 13:51:35;;;;;;;39.55;27.90;;;;;;;;;;5033435;28;20044;-66
2023/04/28 13:54:07;;;;;;;32.80;24.83;;;;;;;;;;5047259;28;20048;-67
2023/04/28 13:56:35;;;;;;;34.45;26.20;;;;;;;;;;5028492;28;20122;-67
2023/04/28 13:59:01;;;;;;;31.98;24.77;;;;;;;;;;5050979;28;20056;-65
2023/04/28 14:01:27;;;;;;;34.05;22.40;;;;;;;;;;5030008;28;20084;-67
2023/04/28 14:03:53;;;;;;;30.55;23.10;;;;;;;;;;5032783;28;20055;-67
2023/04/28 14:06:20;;;;;;;32.75;23.52;;;;;;;;;;5049911;28;20128;-66
2023/04/28 14:08:46;;;;;;;30.17;21.10;;;;;;;;;;5036066;28;20048;-66
2023/04/28 14:11:12;;;;;;;29.55;22.50;;;;;;;;;;5032695;28;20037;-66
2023/04/28 14:13:38;;;;;;;32.58;22.50;;;;;;;;;;5030022;28;20072;-66
2023/04/28 14:16:04;;;;;;;27.75;19.60;;;;;;;;;;5044764;28;20037;-65
2023/04/28 14:18:32;;;;;;;24.23;18.60;;;;;;;;;;5028186;28;20369;-66
2023/04/28 14:29:00;;;;;;;20.98;13.80;;;13.10;99.90;;;;;;5052647;28;19920;-67
2023/04/28 14:31:27;;;;;;;20.15;14.07;;;;;;;;;;5055846;28;20040;-67
2023/04/28 14:33:53;;;;;;;21.38;14.20;;;;;;;;;;5055077;28;20037;-68
2023/04/28 14:36:19;;;;;;;25.17;15.93;;;;;;;;;;5020782;28;20520;-68
2023/04/28 14:54:18;;;;;;;20.90;12.77;;;;;;;;;;6347407;22;20542;-67
2023/04/28 14:56:44;;;;;;;23.08;14.25;;;;;;;;;;6178478;22;1243439;-67
2023/04/28 14:59:10;;;;;;;28.55;15.40;;;;;;;;;;6227635;23;20016;-67